sensor_id;sensor_type;location;lat;lon;timestamp;P1;durP1;ratioP1;P2;durP2;ratioP2
19828;SDS011;10075;50.924;4.396;2023-03-14T00:00:10;5.93;;;1.60;;
19828;SDS011;10075;50.924;4.396;2023-03-14T00:02:40;8.13;;;1.77;;
19828;SDS011;10075;50.924;4.396;2023-03-14T00:05:08;7.07;;;1.20;;
19828;SDS011;10075;50.924;4.396;2023-03-14T00:07:36;8.47;;;1.63;;
19828;SDS011;10075;50.924;4.396;2023-03-14T00:10:04;5.57;;;1.40;;
19828;SDS011;10075;50.924;4.396;2023-03-14T00:12:33;9.93;;;1.87;;
19828;SDS011;10075;50.924;4.396;2023-03-14T00:15:00;5.00;;;1.27;;
19828;SDS011;10075;50.924;4.396;2023-03-14T00:17:28;10.20;;;1.87;;
19828;SDS011;10075;50.924;4.396;2023-03-14T00:19:57;6.47;;;1.40;;
19828;SDS011;10075;50.924;4.396;2023-03-14T00:22:29;4.20;;;0.90;;
19828;SDS011;10075;50.924;4.396;2023-03-14T00:24:56;6.90;;;1.20;;
19828;SDS011;10075;50.924;4.396;2023-03-14T00:27:23;7.40;;;1.30;;
19828;SDS011;10075;50.924;4.396;2023-03-14T00:29:50;8.40;;;1.60;;
19828;SDS011;10075;50.924;4.396;2023-03-14T00:32:17;10.43;;;2.00;;
19828;SDS011;10075;50.924;4.396;2023-03-14T00:34:44;7.87;;;1.60;;
19828;SDS011;10075;50.924;4.396;2023-03-14T00:37:12;10.33;;;1.77;;
19828;SDS011;10075;50.924;4.396;2023-03-14T00:39:40;14.20;;;1.80;;
19828;SDS011;10075;50.924;4.396;2023-03-14T00:42:07;6.07;;;1.47;;
19828;SDS011;10075;50.924;4.396;2023-03-14T00:44:34;8.33;;;1.60;;
19828;SDS011;10075;50.924;4.396;2023-03-14T00:47:01;7.43;;;1.90;;
19828;SDS011;10075;50.924;4.396;2023-03-14T00:49:29;9.70;;;1.47;;
19828;SDS011;10075;50.924;4.396;2023-03-14T00:51:56;8.50;;;2.23;;
19828;SDS011;10075;50.924;4.396;2023-03-14T00:54:24;11.77;;;2.27;;
19828;SDS011;10075;50.924;4.396;2023-03-14T00:56:51;11.97;;;1.60;;
19828;SDS011;10075;50.924;4.396;2023-03-14T00:59:18;10.10;;;2.20;;
19828;SDS011;10075;50.924;4.396;2023-03-14T01:01:45;12.53;;;2.20;;
19828;SDS011;10075;50.924;4.396;2023-03-14T01:04:12;9.70;;;1.67;;
19828;SDS011;10075;50.924;4.396;2023-03-14T01:06:39;8.73;;;2.13;;
19828;SDS011;10075;50.924;4.396;2023-03-14T01:09:06;7.77;;;1.93;;
19828;SDS011;10075;50.924;4.396;2023-03-14T01:11:34;8.03;;;1.87;;
19828;SDS011;10075;50.924;4.396;2023-03-14T01:14:02;10.70;;;1.80;;
19828;SDS011;10075;50.924;4.396;2023-03-14T01:16:31;10.93;;;1.93;;
19828;SDS011;10075;50.924;4.396;2023-03-14T01:18:59;7.47;;;1.70;;
19828;SDS011;10075;50.924;4.396;2023-03-14T01:21:27;11.50;;;2.37;;
19828;SDS011;10075;50.924;4.396;2023-03-14T01:23:56;9.57;;;1.60;;
19828;SDS011;10075;50.924;4.396;2023-03-14T01:26:25;9.43;;;1.53;;
19828;SDS011;10075;50.924;4.396;2023-03-14T01:28:55;11.53;;;2.30;;
19828;SDS011;10075;50.924;4.396;2023-03-14T01:31:23;8.93;;;2.30;;
19828;SDS011;10075;50.924;4.396;2023-03-14T01:33:50;8.43;;;1.80;;
19828;SDS011;10075;50.924;4.396;2023-03-14T01:36:17;10.40;;;2.53;;
19828;SDS011;10075;50.924;4.396;2023-03-14T01:38:45;15.70;;;2.00;;
19828;SDS011;10075;50.924;4.396;2023-03-14T01:41:13;10.23;;;2.10;;
19828;SDS011;10075;50.924;4.396;2023-03-14T01:43:42;14.43;;;2.20;;
19828;SDS011;10075;50.924;4.396;2023-03-14T01:46:20;12.80;;;2.13;;
19828;SDS011;10075;50.924;4.396;2023-03-14T01:48:55;11.83;;;1.97;;
19828;SDS011;10075;50.924;4.396;2023-03-14T01:51:29;13.43;;;2.10;;
19828;SDS011;10075;50.924;4.396;2023-03-14T01:54:02;9.47;;;1.83;;
19828;SDS011;10075;50.924;4.396;2023-03-14T01:56:33;9.00;;;1.93;;
19828;SDS011;10075;50.924;4.396;2023-03-14T01:59:03;10.43;;;1.83;;
19828;SDS011;10075;50.924;4.396;2023-03-14T02:01:34;13.20;;;1.90;;
19828;SDS011;10075;50.924;4.396;2023-03-14T02:04:03;8.10;;;1.20;;
19828;SDS011;10075;50.924;4.396;2023-03-14T02:06:34;7.13;;;1.60;;
19828;SDS011;10075;50.924;4.396;2023-03-14T02:09:07;6.57;;;2.07;;
19828;SDS011;10075;50.924;4.396;2023-03-14T02:11:34;5.43;;;1.47;;
19828;SDS011;10075;50.924;4.396;2023-03-14T02:14:01;8.63;;;1.23;;
19828;SDS011;10075;50.924;4.396;2023-03-14T02:16:29;6.20;;;1.30;;
19828;SDS011;10075;50.924;4.396;2023-03-14T02:18:58;6.97;;;1.30;;
19828;SDS011;10075;50.924;4.396;2023-03-14T02:21:28;4.63;;;1.07;;
19828;SDS011;10075;50.924;4.396;2023-03-14T02:24:09;5.50;;;1.33;;
19828;SDS011;10075;50.924;4.396;2023-03-14T02:29:27;4.40;;;0.87;;
19828;SDS011;10075;50.924;4.396;2023-03-14T02:31:55;5.67;;;1.30;;
19828;SDS011;10075;50.924;4.396;2023-03-14T02:34:22;5.80;;;1.10;;
19828;SDS011;10075;50.924;4.396;2023-03-14T02:36:51;4.90;;;1.27;;
19828;SDS011;10075;50.924;4.396;2023-03-14T02:39:20;4.80;;;1.10;;
19828;SDS011;10075;50.924;4.396;2023-03-14T02:41:52;5.10;;;1.10;;
19828;SDS011;10075;50.924;4.396;2023-03-14T02:44:19;5.57;;;0.80;;
19828;SDS011;10075;50.924;4.396;2023-03-14T02:46:47;3.53;;;0.90;;
19828;SDS011;10075;50.924;4.396;2023-03-14T02:49:14;4.80;;;1.20;;
19828;SDS011;10075;50.924;4.396;2023-03-14T02:51:43;5.13;;;1.07;;
19828;SDS011;10075;50.924;4.396;2023-03-14T02:54:10;5.20;;;1.27;;
19828;SDS011;10075;50.924;4.396;2023-03-14T02:56:38;10.17;;;1.57;;
19828;SDS011;10075;50.924;4.396;2023-03-14T02:59:05;7.63;;;1.50;;
19828;SDS011;10075;50.924;4.396;2023-03-14T03:01:33;4.90;;;1.67;;
19828;SDS011;10075;50.924;4.396;2023-03-14T03:04:02;5.37;;;2.27;;
19828;SDS011;10075;50.924;4.396;2023-03-14T03:06:29;10.87;;;2.10;;
19828;SDS011;10075;50.924;4.396;2023-03-14T03:08:56;8.77;;;2.20;;
19828;SDS011;10075;50.924;4.396;2023-03-14T03:11:23;10.53;;;3.33;;
19828;SDS011;10075;50.924;4.396;2023-03-14T03:13:50;11.70;;;3.03;;
19828;SDS011;10075;50.924;4.396;2023-03-14T03:16:17;8.97;;;2.97;;
19828;SDS011;10075;50.924;4.396;2023-03-14T03:18:44;12.60;;;3.30;;
19828;SDS011;10075;50.924;4.396;2023-03-14T03:21:13;9.73;;;3.10;;
19828;SDS011;10075;50.924;4.396;2023-03-14T03:23:41;7.60;;;3.27;;
19828;SDS011;10075;50.924;4.396;2023-03-14T03:26:09;11.87;;;3.53;;
19828;SDS011;10075;50.924;4.396;2023-03-14T03:28:36;8.60;;;3.03;;
19828;SDS011;10075;50.924;4.396;2023-03-14T03:31:06;11.43;;;3.17;;
19828;SDS011;10075;50.924;4.396;2023-03-14T03:33:33;8.03;;;3.27;;
19828;SDS011;10075;50.924;4.396;2023-03-14T03:36:02;10.90;;;3.77;;
19828;SDS011;10075;50.924;4.396;2023-03-14T03:38:30;14.30;;;3.70;;
19828;SDS011;10075;50.924;4.396;2023-03-14T03:40:57;12.10;;;3.23;;
19828;SDS011;10075;50.924;4.396;2023-03-14T03:43:24;9.93;;;3.60;;
19828;SDS011;10075;50.924;4.396;2023-03-14T03:45:51;13.27;;;3.53;;
19828;SDS011;10075;50.924;4.396;2023-03-14T03:48:18;12.53;;;3.73;;
19828;SDS011;10075;50.924;4.396;2023-03-14T03:50:45;12.57;;;3.60;;
19828;SDS011;10075;50.924;4.396;2023-03-14T03:53:12;10.80;;;3.17;;
19828;SDS011;10075;50.924;4.396;2023-03-14T03:55:41;13.30;;;3.80;;
19828;SDS011;10075;50.924;4.396;2023-03-14T03:58:08;14.33;;;4.40;;
19828;SDS011;10075;50.924;4.396;2023-03-14T04:00:35;9.57;;;3.40;;
19828;SDS011;10075;50.924;4.396;2023-03-14T04:03:04;11.57;;;4.33;;
19828;SDS011;10075;50.924;4.396;2023-03-14T04:05:31;11.37;;;3.97;;
19828;SDS011;10075;50.924;4.396;2023-03-14T04:07:59;14.07;;;4.90;;
19828;SDS011;10075;50.924;4.396;2023-03-14T04:10:26;14.63;;;4.30;;
19828;SDS011;10075;50.924;4.396;2023-03-14T04:12:55;9.53;;;4.27;;
19828;SDS011;10075;50.924;4.396;2023-03-14T04:15:22;13.17;;;4.90;;
19828;SDS011;10075;50.924;4.396;2023-03-14T04:17:49;9.43;;;3.93;;
19828;SDS011;10075;50.924;4.396;2023-03-14T04:20:16;10.67;;;3.87;;
19828;SDS011;10075;50.924;4.396;2023-03-14T04:22:43;11.77;;;4.17;;
19828;SDS011;10075;50.924;4.396;2023-03-14T04:25:10;13.10;;;4.27;;
19828;SDS011;10075;50.924;4.396;2023-03-14T04:27:37;11.63;;;3.90;;
19828;SDS011;10075;50.924;4.396;2023-03-14T04:30:06;12.10;;;3.43;;
19828;SDS011;10075;50.924;4.396;2023-03-14T04:32:34;7.17;;;2.70;;
19828;SDS011;10075;50.924;4.396;2023-03-14T04:35:02;11.23;;;3.10;;
19828;SDS011;10075;50.924;4.396;2023-03-14T04:37:29;6.57;;;2.53;;
19828;SDS011;10075;50.924;4.396;2023-03-14T04:39:56;9.80;;;2.63;;
19828;SDS011;10075;50.924;4.396;2023-03-14T04:42:23;5.97;;;1.93;;
19828;SDS011;10075;50.924;4.396;2023-03-14T04:44:50;6.13;;;1.83;;
19828;SDS011;10075;50.924;4.396;2023-03-14T04:47:18;6.70;;;1.80;;
19828;SDS011;10075;50.924;4.396;2023-03-14T04:49:45;6.37;;;1.73;;
19828;SDS011;10075;50.924;4.396;2023-03-14T04:52:12;6.33;;;1.97;;
19828;SDS011;10075;50.924;4.396;2023-03-14T04:54:39;7.77;;;1.90;;
19828;SDS011;10075;50.924;4.396;2023-03-14T04:57:06;5.47;;;2.03;;
19828;SDS011;10075;50.924;4.396;2023-03-14T04:59:33;6.77;;;2.03;;
19828;SDS011;10075;50.924;4.396;2023-03-14T05:02:00;8.37;;;2.47;;
19828;SDS011;10075;50.924;4.396;2023-03-14T05:04:29;8.63;;;2.13;;
19828;SDS011;10075;50.924;4.396;2023-03-14T05:06:57;5.27;;;2.20;;
19828;SDS011;10075;50.924;4.396;2023-03-14T05:09:25;5.33;;;1.93;;
19828;SDS011;10075;50.924;4.396;2023-03-14T05:11:52;5.70;;;2.03;;
19828;SDS011;10075;50.924;4.396;2023-03-14T05:14:19;3.57;;;1.70;;
19828;SDS011;10075;50.924;4.396;2023-03-14T05:16:46;3.33;;;1.77;;
19828;SDS011;10075;50.924;4.396;2023-03-14T05:19:13;4.50;;;1.83;;
19828;SDS011;10075;50.924;4.396;2023-03-14T05:21:41;2.50;;;1.70;;
19828;SDS011;10075;50.924;4.396;2023-03-14T05:24:08;6.20;;;2.43;;
19828;SDS011;10075;50.924;4.396;2023-03-14T05:26:35;4.77;;;2.00;;
19828;SDS011;10075;50.924;4.396;2023-03-14T05:29:02;3.73;;;1.90;;
19828;SDS011;10075;50.924;4.396;2023-03-14T05:31:29;7.00;;;2.30;;
19828;SDS011;10075;50.924;4.396;2023-03-14T05:33:56;8.30;;;2.30;;
19828;SDS011;10075;50.924;4.396;2023-03-14T05:36:23;3.70;;;1.90;;
19828;SDS011;10075;50.924;4.396;2023-03-14T05:38:51;4.70;;;2.00;;
19828;SDS011;10075;50.924;4.396;2023-03-14T05:41:18;6.00;;;2.27;;
19828;SDS011;10075;50.924;4.396;2023-03-14T05:43:45;4.60;;;2.07;;
19828;SDS011;10075;50.924;4.396;2023-03-14T05:46:12;5.23;;;2.47;;
19828;SDS011;10075;50.924;4.396;2023-03-14T05:48:39;4.50;;;2.13;;
19828;SDS011;10075;50.924;4.396;2023-03-14T05:51:06;5.23;;;2.30;;
19828;SDS011;10075;50.924;4.396;2023-03-14T05:53:33;5.73;;;2.60;;
19828;SDS011;10075;50.924;4.396;2023-03-14T05:56:02;5.23;;;2.43;;
19828;SDS011;10075;50.924;4.396;2023-03-14T05:58:29;3.17;;;2.27;;
19828;SDS011;10075;50.924;4.396;2023-03-14T06:00:56;5.93;;;2.73;;
19828;SDS011;10075;50.924;4.396;2023-03-14T06:03:23;4.73;;;2.63;;
19828;SDS011;10075;50.924;4.396;2023-03-14T06:05:50;4.13;;;2.57;;
19828;SDS011;10075;50.924;4.396;2023-03-14T06:08:17;3.80;;;2.63;;
19828;SDS011;10075;50.924;4.396;2023-03-14T06:10:44;6.23;;;2.80;;
19828;SDS011;10075;50.924;4.396;2023-03-14T06:13:13;5.50;;;2.90;;
19828;SDS011;10075;50.924;4.396;2023-03-14T06:15:40;6.77;;;2.80;;
19828;SDS011;10075;50.924;4.396;2023-03-14T06:18:07;6.43;;;2.77;;
19828;SDS011;10075;50.924;4.396;2023-03-14T06:20:35;6.77;;;2.73;;
19828;SDS011;10075;50.924;4.396;2023-03-14T06:23:04;6.53;;;2.90;;
19828;SDS011;10075;50.924;4.396;2023-03-14T06:25:31;6.43;;;3.33;;
19828;SDS011;10075;50.924;4.396;2023-03-14T06:27:58;7.33;;;3.77;;
19828;SDS011;10075;50.924;4.396;2023-03-14T06:30:27;7.93;;;3.93;;
19828;SDS011;10075;50.924;4.396;2023-03-14T06:32:54;13.73;;;3.67;;
19828;SDS011;10075;50.924;4.396;2023-03-14T06:35:21;10.30;;;4.13;;
19828;SDS011;10075;50.924;4.396;2023-03-14T06:37:48;9.43;;;4.07;;
19828;SDS011;10075;50.924;4.396;2023-03-14T06:40:15;10.00;;;4.10;;
19828;SDS011;10075;50.924;4.396;2023-03-14T06:42:43;13.67;;;4.37;;
19828;SDS011;10075;50.924;4.396;2023-03-14T06:45:10;10.90;;;4.57;;
19828;SDS011;10075;50.924;4.396;2023-03-14T06:47:39;11.23;;;7.10;;
19828;SDS011;10075;50.924;4.396;2023-03-14T06:50:06;8.87;;;5.17;;
19828;SDS011;10075;50.924;4.396;2023-03-14T06:52:34;2.20;;;1.27;;
19828;SDS011;10075;50.924;4.396;2023-03-14T06:55:02;2.67;;;0.90;;
19828;SDS011;10075;50.924;4.396;2023-03-14T06:57:29;1.20;;;0.70;;
19828;SDS011;10075;50.924;4.396;2023-03-14T06:59:56;1.40;;;1.10;;
19828;SDS011;10075;50.924;4.396;2023-03-14T07:02:23;4.00;;;1.53;;
19828;SDS011;10075;50.924;4.396;2023-03-14T07:04:52;6.23;;;2.00;;
19828;SDS011;10075;50.924;4.396;2023-03-14T07:07:19;7.20;;;1.83;;
19828;SDS011;10075;50.924;4.396;2023-03-14T07:09:46;4.47;;;2.37;;
19828;SDS011;10075;50.924;4.396;2023-03-14T07:12:13;18.30;;;5.43;;
19828;SDS011;10075;50.924;4.396;2023-03-14T07:14:40;9.20;;;3.00;;
19828;SDS011;10075;50.924;4.396;2023-03-14T07:17:07;8.77;;;3.40;;
19828;SDS011;10075;50.924;4.396;2023-03-14T07:19:34;6.47;;;4.00;;
19828;SDS011;10075;50.924;4.396;2023-03-14T07:22:04;8.33;;;3.37;;
19828;SDS011;10075;50.924;4.396;2023-03-14T07:24:31;9.30;;;3.83;;
19828;SDS011;10075;50.924;4.396;2023-03-14T07:26:58;8.70;;;2.90;;
19828;SDS011;10075;50.924;4.396;2023-03-14T07:29:25;3.63;;;2.53;;
19828;SDS011;10075;50.924;4.396;2023-03-14T07:31:53;7.33;;;2.47;;
19828;SDS011;10075;50.924;4.396;2023-03-14T07:34:20;4.77;;;2.43;;
19828;SDS011;10075;50.924;4.396;2023-03-14T07:36:47;4.27;;;2.23;;
19828;SDS011;10075;50.924;4.396;2023-03-14T07:39:15;9.07;;;3.43;;
19828;SDS011;10075;50.924;4.396;2023-03-14T07:41:42;4.00;;;2.67;;
19828;SDS011;10075;50.924;4.396;2023-03-14T07:44:09;5.93;;;2.30;;
19828;SDS011;10075;50.924;4.396;2023-03-14T07:46:36;8.97;;;2.83;;
19828;SDS011;10075;50.924;4.396;2023-03-14T07:49:03;5.83;;;2.93;;
19828;SDS011;10075;50.924;4.396;2023-03-14T07:51:30;8.30;;;3.50;;
19828;SDS011;10075;50.924;4.396;2023-03-14T07:53:57;11.67;;;4.73;;
19828;SDS011;10075;50.924;4.396;2023-03-14T07:56:26;12.23;;;3.87;;
19828;SDS011;10075;50.924;4.396;2023-03-14T07:58:53;5.43;;;2.90;;
19828;SDS011;10075;50.924;4.396;2023-03-14T08:01:20;6.67;;;3.57;;
19828;SDS011;10075;50.924;4.396;2023-03-14T08:03:47;7.17;;;3.33;;
19828;SDS011;10075;50.924;4.396;2023-03-14T08:06:14;11.33;;;4.23;;
19828;SDS011;10075;50.924;4.396;2023-03-14T08:08:41;12.20;;;4.70;;
19828;SDS011;10075;50.924;4.396;2023-03-14T08:11:08;10.70;;;4.53;;
19828;SDS011;10075;50.924;4.396;2023-03-14T08:13:37;7.23;;;2.50;;
19828;SDS011;10075;50.924;4.396;2023-03-14T08:16:04;4.70;;;2.90;;
19828;SDS011;10075;50.924;4.396;2023-03-14T08:18:32;6.73;;;3.10;;
19828;SDS011;10075;50.924;4.396;2023-03-14T08:20:59;7.40;;;3.60;;
19828;SDS011;10075;50.924;4.396;2023-03-14T08:23:26;9.53;;;4.23;;
19828;SDS011;10075;50.924;4.396;2023-03-14T08:25:53;12.00;;;4.27;;
19828;SDS011;10075;50.924;4.396;2023-03-14T08:28:20;10.00;;;4.50;;
19828;SDS011;10075;50.924;4.396;2023-03-14T08:30:48;8.50;;;4.33;;
19828;SDS011;10075;50.924;4.396;2023-03-14T08:33:15;11.63;;;4.17;;
19828;SDS011;10075;50.924;4.396;2023-03-14T08:35:42;8.47;;;3.67;;
19828;SDS011;10075;50.924;4.396;2023-03-14T08:38:09;8.00;;;3.77;;
19828;SDS011;10075;50.924;4.396;2023-03-14T08:40:37;9.27;;;4.17;;
19828;SDS011;10075;50.924;4.396;2023-03-14T08:43:04;6.77;;;3.00;;
19828;SDS011;10075;50.924;4.396;2023-03-14T08:45:31;16.07;;;6.17;;
19828;SDS011;10075;50.924;4.396;2023-03-14T08:47:59;8.23;;;3.47;;
19828;SDS011;10075;50.924;4.396;2023-03-14T08:50:26;8.27;;;3.70;;
19828;SDS011;10075;50.924;4.396;2023-03-14T08:52:53;7.43;;;3.20;;
19828;SDS011;10075;50.924;4.396;2023-03-14T08:55:22;7.97;;;4.17;;
19828;SDS011;10075;50.924;4.396;2023-03-14T08:57:49;15.23;;;5.00;;
19828;SDS011;10075;50.924;4.396;2023-03-14T09:00:17;7.90;;;4.13;;
19828;SDS011;10075;50.924;4.396;2023-03-14T09:02:44;8.20;;;3.93;;
19828;SDS011;10075;50.924;4.396;2023-03-14T09:05:13;5.93;;;3.37;;
19828;SDS011;10075;50.924;4.396;2023-03-14T09:07:40;15.23;;;5.97;;
19828;SDS011;10075;50.924;4.396;2023-03-14T09:10:08;4.33;;;2.87;;
19828;SDS011;10075;50.924;4.396;2023-03-14T09:12:36;7.07;;;3.03;;
19828;SDS011;10075;50.924;4.396;2023-03-14T09:15:03;5.93;;;2.63;;
19828;SDS011;10075;50.924;4.396;2023-03-14T09:17:30;5.00;;;3.10;;
19828;SDS011;10075;50.924;4.396;2023-03-14T09:19:57;7.07;;;3.30;;
19828;SDS011;10075;50.924;4.396;2023-03-14T09:22:26;9.70;;;4.30;;
19828;SDS011;10075;50.924;4.396;2023-03-14T09:24:53;11.10;;;4.43;;
19828;SDS011;10075;50.924;4.396;2023-03-14T09:27:20;11.30;;;5.17;;
19828;SDS011;10075;50.924;4.396;2023-03-14T09:29:47;8.80;;;4.30;;
19828;SDS011;10075;50.924;4.396;2023-03-14T09:32:14;9.17;;;4.90;;
19828;SDS011;10075;50.924;4.396;2023-03-14T09:34:41;11.77;;;3.80;;
19828;SDS011;10075;50.924;4.396;2023-03-14T09:37:08;13.90;;;4.60;;
19828;SDS011;10075;50.924;4.396;2023-03-14T09:39:36;10.90;;;4.17;;
19828;SDS011;10075;50.924;4.396;2023-03-14T09:42:04;14.80;;;4.03;;
19828;SDS011;10075;50.924;4.396;2023-03-14T09:44:34;13.10;;;3.70;;
19828;SDS011;10075;50.924;4.396;2023-03-14T09:47:06;11.43;;;3.47;;
19828;SDS011;10075;50.924;4.396;2023-03-14T09:49:37;17.03;;;4.63;;
19828;SDS011;10075;50.924;4.396;2023-03-14T09:52:07;14.53;;;4.53;;
19828;SDS011;10075;50.924;4.396;2023-03-14T09:54:42;11.23;;;3.93;;
19828;SDS011;10075;50.924;4.396;2023-03-14T09:57:12;10.87;;;4.20;;
19828;SDS011;10075;50.924;4.396;2023-03-14T09:59:43;10.63;;;3.70;;
19828;SDS011;10075;50.924;4.396;2023-03-14T10:02:13;8.87;;;3.27;;
19828;SDS011;10075;50.924;4.396;2023-03-14T10:04:43;12.80;;;4.20;;
19828;SDS011;10075;50.924;4.396;2023-03-14T10:07:12;12.33;;;4.00;;
19828;SDS011;10075;50.924;4.396;2023-03-14T10:09:44;11.50;;;3.10;;
19828;SDS011;10075;50.924;4.396;2023-03-14T10:12:13;9.27;;;2.60;;
19828;SDS011;10075;50.924;4.396;2023-03-14T10:14:45;11.00;;;3.13;;
19828;SDS011;10075;50.924;4.396;2023-03-14T10:17:14;11.30;;;3.50;;
19828;SDS011;10075;50.924;4.396;2023-03-14T10:19:53;6.53;;;2.13;;
19828;SDS011;10075;50.924;4.396;2023-03-14T10:22:21;10.23;;;2.47;;
19828;SDS011;10075;50.924;4.396;2023-03-14T10:24:53;8.30;;;2.43;;
19828;SDS011;10075;50.924;4.396;2023-03-14T10:27:27;8.73;;;2.20;;
19828;SDS011;10075;50.924;4.396;2023-03-14T10:29:57;9.57;;;3.10;;
19828;SDS011;10075;50.924;4.396;2023-03-14T10:32:31;8.13;;;1.80;;
19828;SDS011;10075;50.924;4.396;2023-03-14T10:35:04;8.93;;;1.50;;
19828;SDS011;10075;50.924;4.396;2023-03-14T10:37:34;4.37;;;1.03;;
19828;SDS011;10075;50.924;4.396;2023-03-14T10:40:03;9.70;;;1.10;;
19828;SDS011;10075;50.924;4.396;2023-03-14T10:42:32;2.43;;;1.40;;
19828;SDS011;10075;50.924;4.396;2023-03-14T10:45:06;2.83;;;1.40;;
19828;SDS011;10075;50.924;4.396;2023-03-14T10:47:49;2.43;;;1.27;;
19828;SDS011;10075;50.924;4.396;2023-03-14T10:50:22;6.30;;;1.67;;
19828;SDS011;10075;50.924;4.396;2023-03-14T10:52:53;4.07;;;1.30;;
19828;SDS011;10075;50.924;4.396;2023-03-14T10:55:24;5.17;;;1.50;;
19828;SDS011;10075;50.924;4.396;2023-03-14T10:57:51;4.03;;;1.30;;
19828;SDS011;10075;50.924;4.396;2023-03-14T11:00:21;2.80;;;1.23;;
19828;SDS011;10075;50.924;4.396;2023-03-14T11:03:00;4.27;;;1.53;;
19828;SDS011;10075;50.924;4.396;2023-03-14T11:05:36;1.93;;;1.00;;
19828;SDS011;10075;50.924;4.396;2023-03-14T11:08:09;4.27;;;1.17;;
19828;SDS011;10075;50.924;4.396;2023-03-14T11:10:43;1.53;;;0.70;;
19828;SDS011;10075;50.924;4.396;2023-03-14T11:13:16;5.10;;;0.83;;
19828;SDS011;10075;50.924;4.396;2023-03-14T11:15:50;3.57;;;1.10;;
19828;SDS011;10075;50.924;4.396;2023-03-14T11:21:47;7.37;;;1.10;;
19828;SDS011;10075;50.924;4.396;2023-03-14T11:24:33;3.50;;;1.30;;
19828;SDS011;10075;50.924;4.396;2023-03-14T11:27:13;4.03;;;1.20;;
19828;SDS011;10075;50.924;4.396;2023-03-14T11:29:54;1.97;;;0.93;;
19828;SDS011;10075;50.924;4.396;2023-03-14T11:32:38;3.80;;;1.10;;
19828;SDS011;10075;50.924;4.396;2023-03-14T11:35:15;2.87;;;0.90;;
19828;SDS011;10075;50.924;4.396;2023-03-14T11:37:46;2.50;;;0.70;;
19828;SDS011;10075;50.924;4.396;2023-03-14T11:40:20;3.20;;;0.67;;
19828;SDS011;10075;50.924;4.396;2023-03-14T11:42:53;2.73;;;0.90;;
19828;SDS011;10075;50.924;4.396;2023-03-14T11:45:28;2.73;;;0.90;;
19828;SDS011;10075;50.924;4.396;2023-03-14T11:50:52;1.57;;;0.60;;
19828;SDS011;10075;50.924;4.396;2023-03-14T11:53:22;2.53;;;0.80;;
19828;SDS011;10075;50.924;4.396;2023-03-14T11:56:03;3.27;;;1.00;;
19828;SDS011;10075;50.924;4.396;2023-03-14T11:58:39;4.07;;;1.60;;
19828;SDS011;10075;50.924;4.396;2023-03-14T12:01:13;3.50;;;1.10;;
19828;SDS011;10075;50.924;4.396;2023-03-14T12:03:45;2.27;;;1.23;;
19828;SDS011;10075;50.924;4.396;2023-03-14T12:06:22;5.60;;;1.50;;
19828;SDS011;10075;50.924;4.396;2023-03-14T12:08:55;1.53;;;1.17;;
19828;SDS011;10075;50.924;4.396;2023-03-14T12:11:31;2.40;;;1.20;;
19828;SDS011;10075;50.924;4.396;2023-03-14T12:14:15;2.27;;;1.40;;
19828;SDS011;10075;50.924;4.396;2023-03-14T12:16:46;2.53;;;1.00;;
19828;SDS011;10075;50.924;4.396;2023-03-14T12:22:08;5.57;;;1.37;;
19828;SDS011;10075;50.924;4.396;2023-03-14T12:24:49;3.10;;;1.10;;
19828;SDS011;10075;50.924;4.396;2023-03-14T12:30:37;5.43;;;1.20;;
19828;SDS011;10075;50.924;4.396;2023-03-14T12:39:10;8.23;;;2.30;;
19828;SDS011;10075;50.924;4.396;2023-03-14T12:41:48;6.77;;;2.03;;
19828;SDS011;10075;50.924;4.396;2023-03-14T12:50:35;7.80;;;2.70;;
19828;SDS011;10075;50.924;4.396;2023-03-14T12:53:15;9.50;;;2.73;;
19828;SDS011;10075;50.924;4.396;2023-03-14T12:56:06;9.67;;;2.67;;
19828;SDS011;10075;50.924;4.396;2023-03-14T12:58:43;6.07;;;2.37;;
19828;SDS011;10075;50.924;4.396;2023-03-14T13:01:15;6.73;;;2.37;;
19828;SDS011;10075;50.924;4.396;2023-03-14T13:03:47;8.07;;;1.90;;
19828;SDS011;10075;50.924;4.396;2023-03-14T13:12:02;10.00;;;2.23;;
19828;SDS011;10075;50.924;4.396;2023-03-14T13:14:35;8.17;;;2.83;;
19828;SDS011;10075;50.924;4.396;2023-03-14T13:17:09;6.10;;;1.80;;
19828;SDS011;10075;50.924;4.396;2023-03-14T13:19:39;22.30;;;4.00;;
19828;SDS011;10075;50.924;4.396;2023-03-14T13:22:14;14.63;;;3.40;;
19828;SDS011;10075;50.924;4.396;2023-03-14T13:24:47;18.53;;;3.87;;
19828;SDS011;10075;50.924;4.396;2023-03-14T13:27:16;28.70;;;4.00;;
19828;SDS011;10075;50.924;4.396;2023-03-14T13:29:45;12.10;;;3.33;;
19828;SDS011;10075;50.924;4.396;2023-03-14T13:32:20;21.53;;;4.63;;
19828;SDS011;10075;50.924;4.396;2023-03-14T13:34:50;20.70;;;3.90;;
19828;SDS011;10075;50.924;4.396;2023-03-14T13:37:19;24.73;;;4.27;;
19828;SDS011;10075;50.924;4.396;2023-03-14T13:39:49;15.27;;;3.53;;
19828;SDS011;10075;50.924;4.396;2023-03-14T13:42:17;16.20;;;3.47;;
19828;SDS011;10075;50.924;4.396;2023-03-14T13:44:45;11.87;;;3.10;;
19828;SDS011;10075;50.924;4.396;2023-03-14T13:47:15;19.67;;;3.70;;
19828;SDS011;10075;50.924;4.396;2023-03-14T13:49:43;19.37;;;3.77;;
19828;SDS011;10075;50.924;4.396;2023-03-14T13:52:24;29.47;;;4.47;;
19828;SDS011;10075;50.924;4.396;2023-03-14T13:54:59;22.27;;;3.90;;
19828;SDS011;10075;50.924;4.396;2023-03-14T13:57:45;21.17;;;4.03;;
19828;SDS011;10075;50.924;4.396;2023-03-14T14:00:20;21.47;;;3.30;;
19828;SDS011;10075;50.924;4.396;2023-03-14T14:02:52;11.80;;;3.53;;
19828;SDS011;10075;50.924;4.396;2023-03-14T14:05:22;10.93;;;2.17;;
19828;SDS011;10075;50.924;4.396;2023-03-14T14:07:55;13.67;;;2.73;;
19828;SDS011;10075;50.924;4.396;2023-03-14T14:10:25;13.27;;;2.60;;
19828;SDS011;10075;50.924;4.396;2023-03-14T14:12:56;9.30;;;2.00;;
19828;SDS011;10075;50.924;4.396;2023-03-14T14:15:28;8.70;;;1.73;;
19828;SDS011;10075;50.924;4.396;2023-03-14T14:18:00;13.30;;;2.47;;
19828;SDS011;10075;50.924;4.396;2023-03-14T14:20:32;14.13;;;1.63;;
19828;SDS011;10075;50.924;4.396;2023-03-14T14:23:04;13.53;;;1.83;;
19828;SDS011;10075;50.924;4.396;2023-03-14T14:25:37;13.80;;;1.63;;
19828;SDS011;10075;50.924;4.396;2023-03-14T14:28:15;11.90;;;2.20;;
19828;SDS011;10075;50.924;4.396;2023-03-14T14:30:44;13.47;;;1.97;;
19828;SDS011;10075;50.924;4.396;2023-03-14T14:33:17;4.80;;;1.37;;
19828;SDS011;10075;50.924;4.396;2023-03-14T14:35:50;11.57;;;1.60;;
19828;SDS011;10075;50.924;4.396;2023-03-14T14:38:23;8.73;;;1.40;;
19828;SDS011;10075;50.924;4.396;2023-03-14T14:40:52;3.97;;;0.97;;
19828;SDS011;10075;50.924;4.396;2023-03-14T14:43:22;2.10;;;0.60;;
19828;SDS011;10075;50.924;4.396;2023-03-14T14:45:54;5.20;;;0.80;;
19828;SDS011;10075;50.924;4.396;2023-03-14T14:48:23;4.10;;;0.70;;
19828;SDS011;10075;50.924;4.396;2023-03-14T14:50:57;2.63;;;0.70;;
19828;SDS011;10075;50.924;4.396;2023-03-14T14:53:29;1.07;;;0.20;;
19828;SDS011;10075;50.924;4.396;2023-03-14T14:56:03;3.67;;;0.70;;
19828;SDS011;10075;50.924;4.396;2023-03-14T14:58:34;2.57;;;0.43;;
19828;SDS011;10075;50.924;4.396;2023-03-14T15:01:04;1.83;;;0.70;;
19828;SDS011;10075;50.924;4.396;2023-03-14T15:03:35;3.50;;;0.80;;
19828;SDS011;10075;50.924;4.396;2023-03-14T15:06:03;3.70;;;0.73;;
19828;SDS011;10075;50.924;4.396;2023-03-14T15:08:33;2.70;;;0.73;;
19828;SDS011;10075;50.924;4.396;2023-03-14T15:11:03;3.67;;;0.70;;
19828;SDS011;10075;50.924;4.396;2023-03-14T15:13:31;6.10;;;0.90;;
19828;SDS011;10075;50.924;4.396;2023-03-14T15:16:00;2.47;;;1.20;;
19828;SDS011;10075;50.924;4.396;2023-03-14T15:18:28;5.60;;;1.10;;
19828;SDS011;10075;50.924;4.396;2023-03-14T15:20:57;3.07;;;1.10;;
19828;SDS011;10075;50.924;4.396;2023-03-14T15:23:25;4.57;;;1.10;;
19828;SDS011;10075;50.924;4.396;2023-03-14T15:25:54;3.47;;;1.10;;
19828;SDS011;10075;50.924;4.396;2023-03-14T15:28:23;4.47;;;1.33;;